createdAt,value
2019-03-13T00:00:44.946Z,3.27
2019-03-13T00:03:16.795Z,3.27
2019-03-13T00:05:46.490Z,3.19
2019-03-13T00:08:16.222Z,3.13
2019-03-13T00:10:45.974Z,3.10
2019-03-13T00:13:18.150Z,2.71
2019-03-13T00:15:49.710Z,2.71
2019-03-13T00:18:19.052Z,2.89
2019-03-13T00:20:51.975Z,2.99
2019-03-13T00:23:27.167Z,2.99
2019-03-13T00:25:56.786Z,3.03
2019-03-13T00:28:26.325Z,2.68
2019-03-13T00:30:55.968Z,2.81
2019-03-13T00:33:26.977Z,2.79
2019-03-13T00:35:57.999Z,2.79
2019-03-13T00:38:27.569Z,2.69
2019-03-13T00:40:57.217Z,2.64
2019-03-13T00:43:26.922Z,2.70
2019-03-13T00:45:56.586Z,2.82
2019-03-13T00:48:26.159Z,2.82
2019-03-13T00:50:55.782Z,2.83
2019-03-13T00:53:31.581Z,2.90
2019-03-13T00:56:03.152Z,2.90
2019-03-13T00:58:32.806Z,2.81
2019-03-13T01:01:20.077Z,2.74
2019-03-13T01:04:08.815Z,2.56
2019-03-13T01:06:46.987Z,2.56
2019-03-13T01:09:16.634Z,2.44
2019-03-13T01:11:47.595Z,2.54
2019-03-13T01:14:18.221Z,2.54
2019-03-13T01:16:48.117Z,2.62
2019-03-13T01:19:21.280Z,2.32
2019-03-13T01:21:50.862Z,2.34
2019-03-13T01:24:20.509Z,2.31
2019-03-13T01:26:52.024Z,2.31
2019-03-13T01:29:22.580Z,2.19
2019-03-13T01:32:09.798Z,2.16
2019-03-13T01:34:57.121Z,2.14
2019-03-13T01:37:26.909Z,2.21
2019-03-13T01:39:58.698Z,1.99
2019-03-13T01:42:28.327Z,1.95
2019-03-13T01:44:58.027Z,1.93
2019-03-13T01:47:31.048Z,1.87
2019-03-13T01:50:00.778Z,1.77
2019-03-13T01:52:32.336Z,1.77
2019-03-13T01:55:02.142Z,1.76
2019-03-13T01:57:31.649Z,2.04
2019-03-13T02:00:01.274Z,2.12
2019-03-13T02:02:32.617Z,2.12
2019-03-13T02:05:02.365Z,2.06
2019-03-13T02:07:32.077Z,1.97
2019-03-13T02:10:05.540Z,1.99
2019-03-13T02:12:38.570Z,2.08
2019-03-13T02:15:09.074Z,2.22
2019-03-13T02:17:38.672Z,2.22
2019-03-13T02:20:09.157Z,2.05
2019-03-13T02:22:38.848Z,1.90
2019-03-13T02:25:09.782Z,1.80
2019-03-13T02:27:41.302Z,1.85
2019-03-13T02:30:12.438Z,1.85
2019-03-13T02:32:42.112Z,1.82
2019-03-13T02:35:11.819Z,1.73
2019-03-13T02:37:41.496Z,1.74
2019-03-13T02:40:11.692Z,1.71
2019-03-13T02:42:41.580Z,1.69
2019-03-13T02:45:11.766Z,1.73
2019-03-13T02:47:41.478Z,1.73
2019-03-13T02:50:14.764Z,1.61
2019-03-13T02:52:44.492Z,1.68
2019-03-13T02:55:14.069Z,1.76
2019-03-13T02:57:43.673Z,1.66
2019-03-13T03:00:17.499Z,1.67
2019-03-13T03:02:51.686Z,1.80
2019-03-13T03:05:21.337Z,1.80
2019-03-13T03:07:52.123Z,1.92
2019-03-13T03:10:22.769Z,1.76
2019-03-13T03:12:54.656Z,1.67
2019-03-13T03:15:25.570Z,1.71
2019-03-13T03:17:56.360Z,1.72
2019-03-13T03:20:25.990Z,1.85
2019-03-13T03:22:55.735Z,1.90
2019-03-13T03:25:27.572Z,1.93
2019-03-13T03:27:57.204Z,1.95
2019-03-13T03:30:27.396Z,2.19
2019-03-13T03:32:59.772Z,2.28
2019-03-13T03:35:29.523Z,2.32
2019-03-13T03:37:59.110Z,2.49
2019-03-13T03:40:31.822Z,2.36
2019-03-13T03:43:03.105Z,2.36
2019-03-13T03:45:36.302Z,2.35
2019-03-13T03:48:07.369Z,2.37
2019-03-13T03:50:38.269Z,2.43
2019-03-13T03:53:08.256Z,2.45
2019-03-13T03:55:37.929Z,2.69
2019-03-13T03:58:12.260Z,2.72
2019-03-13T04:00:42.109Z,2.64
2019-03-13T04:03:17.412Z,2.73
2019-03-13T04:05:45.047Z,2.82
2019-03-13T04:08:14.742Z,2.76
2019-03-13T04:10:44.404Z,2.69
2019-03-13T04:13:15.699Z,2.69
2019-03-13T04:15:45.384Z,3.00
2019-03-13T04:18:15.021Z,3.00
2019-03-13T04:20:45.713Z,3.12
2019-03-13T04:23:16.483Z,3.24
2019-03-13T04:25:47.675Z,3.31
2019-03-13T04:28:17.329Z,3.44
2019-03-13T04:30:47.049Z,3.64
2019-03-13T04:33:18.354Z,3.61
2019-03-13T04:35:50.659Z,3.70
2019-03-13T04:38:24.141Z,3.84
2019-03-13T04:40:55.673Z,4.07
2019-03-13T04:43:25.007Z,4.07
2019-03-13T04:46:00.274Z,4.14
2019-03-13T04:48:30.005Z,4.17
2019-03-13T04:51:00.680Z,4.17
2019-03-13T04:53:30.337Z,4.18
2019-03-13T04:56:03.532Z,4.18
2019-03-13T04:58:36.300Z,4.28
2019-03-13T05:01:09.540Z,4.44
2019-03-13T05:03:39.224Z,4.44
2019-03-13T05:06:23.540Z,4.52
2019-03-13T05:09:23.210Z,4.54
2019-03-13T05:11:53.261Z,4.54
2019-03-13T05:14:26.797Z,4.51
2019-03-13T05:16:57.542Z,4.62
2019-03-13T05:19:27.183Z,4.62
2019-03-13T05:21:57.022Z,4.67
2019-03-13T05:24:27.975Z,4.67
2019-03-13T05:26:59.030Z,4.78
2019-03-13T05:29:29.654Z,4.78
2019-03-13T05:32:02.213Z,4.38
2019-03-13T05:34:34.000Z,4.35
2019-03-13T05:37:05.259Z,4.39
2019-03-13T05:39:38.561Z,4.26
2019-03-13T05:42:08.378Z,4.26
2019-03-13T05:44:41.426Z,4.56
2019-03-13T05:47:11.239Z,4.73
2019-03-13T05:49:40.922Z,4.90
2019-03-13T05:52:13.825Z,5.20
2019-03-13T05:54:45.793Z,5.28
2019-03-13T05:57:17.536Z,5.35
2019-03-13T05:59:50.143Z,5.24
2019-03-13T06:02:19.753Z,5.24
2019-03-13T06:04:51.776Z,5.34
2019-03-13T06:07:23.397Z,5.45
2019-03-13T06:10:00.665Z,5.70
2019-03-13T06:12:31.520Z,5.64
2019-03-13T06:15:03.524Z,5.69
2019-03-13T06:17:33.782Z,5.71
2019-03-13T06:20:04.759Z,6.32
2019-03-13T06:22:34.339Z,6.58
2019-03-13T06:25:05.348Z,6.63
2019-03-13T06:27:36.049Z,7.18
2019-03-13T06:30:11.765Z,7.64
2019-03-13T06:32:41.537Z,7.64
2019-03-13T06:35:11.461Z,8.46
2019-03-13T06:37:45.290Z,9.47
2019-03-13T06:40:15.149Z,9.42
2019-03-13T06:42:46.119Z,9.41
2019-03-13T06:45:18.293Z,10.51
2019-03-13T06:47:49.475Z,13.10
2019-03-13T06:50:21.534Z,15.79
2019-03-13T06:52:50.916Z,17.84
2019-03-13T06:55:24.207Z,19.78
2019-03-13T06:57:55.767Z,21.03
2019-03-13T07:00:45.261Z,21.12
2019-03-13T07:03:36.581Z,21.56
2019-03-13T07:06:16.913Z,21.91
2019-03-13T07:09:08.292Z,22.60
2019-03-13T07:11:55.603Z,23.15
2019-03-13T07:14:46.978Z,22.82
2019-03-13T07:17:25.210Z,22.38
2019-03-13T07:20:16.712Z,23.09
2019-03-13T07:23:07.217Z,23.27
2019-03-13T07:26:00.308Z,23.79
2019-03-13T07:28:37.872Z,24.37
2019-03-13T07:31:22.365Z,26.15
2019-03-13T07:34:19.432Z,26.58
2019-03-13T07:37:03.124Z,27.31
2019-03-13T07:39:51.932Z,28.35
2019-03-13T07:42:46.397Z,28.52
2019-03-13T07:45:36.790Z,29.43
2019-03-13T07:48:25.214Z,30.02
2019-03-13T07:51:12.050Z,29.39
2019-03-13T07:53:50.848Z,27.72
2019-03-13T07:56:50.380Z,26.38
2019-03-13T07:59:56.928Z,23.68
2019-03-13T08:02:46.409Z,22.15
2019-03-13T08:05:27.964Z,20.03
2019-03-13T08:08:15.477Z,18.09
2019-03-13T08:11:20.979Z,19.34
2019-03-13T08:14:12.075Z,19.57
2019-03-13T08:17:09.017Z,18.82
2019-03-13T08:20:18.992Z,17.38
2019-03-13T08:23:07.414Z,16.57
2019-03-13T08:25:51.639Z,15.71
2019-03-13T08:28:43.283Z,17.63
2019-03-13T08:31:29.845Z,19.53
2019-03-13T08:34:23.864Z,19.31
2019-03-13T08:37:18.084Z,19.85
2019-03-13T08:40:09.626Z,19.06
2019-03-13T08:43:01.687Z,19.51
2019-03-13T08:46:06.155Z,18.91
2019-03-13T08:48:54.994Z,19.32
2019-03-13T08:52:00.629Z,20.97
2019-03-13T08:55:00.697Z,21.46
2019-03-13T08:58:12.355Z,22.38
2019-03-13T09:01:12.016Z,23.67
2019-03-13T09:04:07.695Z,24.27
2019-03-13T09:07:10.913Z,24.34
2019-03-13T09:09:52.031Z,25.57
2019-03-13T09:12:55.464Z,26.28
2019-03-13T09:15:42.577Z,27.73
2019-03-13T09:18:37.521Z,27.42
2019-03-13T09:21:46.496Z,26.12
2019-03-13T09:24:34.515Z,25.81
2019-03-13T09:27:35.322Z,24.84
2019-03-13T09:30:28.427Z,24.93
2019-03-13T09:33:25.071Z,24.94
2019-03-13T09:36:16.709Z,25.83
2019-03-13T09:39:02.613Z,27.80
2019-03-13T09:41:41.857Z,26.65
2019-03-13T09:44:38.909Z,25.42
2019-03-13T09:47:36.488Z,24.40
2019-03-13T09:50:14.683Z,25.56
2019-03-13T09:53:04.076Z,26.15
2019-03-13T09:55:52.636Z,25.61
2019-03-13T09:58:47.535Z,25.54
2019-03-13T10:01:53.598Z,25.69
2019-03-13T10:04:42.208Z,27.22
2019-03-13T10:07:49.306Z,26.57
2019-03-13T10:10:42.094Z,27.52
2019-03-13T10:13:39.379Z,28.77
2019-03-13T10:16:28.012Z,27.47
2019-03-13T10:19:15.019Z,26.13
2019-03-13T10:22:03.478Z,28.25
2019-03-13T10:24:44.823Z,29.10
2019-03-13T10:27:24.402Z,28.27
2019-03-13T10:30:02.759Z,28.92
2019-03-13T10:32:52.867Z,26.97
2019-03-13T10:35:31.979Z,24.01
2019-03-13T10:38:22.494Z,24.76
2019-03-13T10:41:17.440Z,24.95
2019-03-13T10:44:04.631Z,23.72
2019-03-13T10:46:46.212Z,24.69
2019-03-13T10:49:29.490Z,24.41
2019-03-13T10:52:28.581Z,24.13
2019-03-13T10:55:22.849Z,23.57
2019-03-13T10:58:17.286Z,24.18
2019-03-13T11:01:11.303Z,23.40
2019-03-13T11:03:59.204Z,22.85
2019-03-13T11:06:55.037Z,23.04
2019-03-13T11:09:25.775Z,20.63
2019-03-13T11:12:02.419Z,22.20
2019-03-13T11:14:47.836Z,22.57
2019-03-13T11:17:36.398Z,22.10
2019-03-13T11:20:30.526Z,22.61
2019-03-13T11:23:24.859Z,20.22
2019-03-13T11:26:07.299Z,21.64
2019-03-13T11:29:01.241Z,19.22
2019-03-13T11:31:49.708Z,19.92
2019-03-13T11:34:56.299Z,21.50
2019-03-13T11:37:58.418Z,21.51
2019-03-13T11:40:45.932Z,20.12
2019-03-13T11:43:34.398Z,20.16
2019-03-13T11:46:21.981Z,19.44
2019-03-13T11:49:09.342Z,17.40
2019-03-13T11:52:08.036Z,15.48
2019-03-13T11:55:04.813Z,14.92
2019-03-13T11:58:06.437Z,13.63
2019-03-13T12:00:47.673Z,12.93
2019-03-13T12:03:41.817Z,12.63
2019-03-13T12:06:21.316Z,12.77
2019-03-13T12:09:10.014Z,12.84
2019-03-13T12:12:02.228Z,13.09
2019-03-13T12:14:43.701Z,12.75
2019-03-13T12:17:37.024Z,12.31
2019-03-13T12:20:33.156Z,12.05
2019-03-13T12:23:31.580Z,11.81
2019-03-13T12:26:18.741Z,11.97
2019-03-13T12:29:10.272Z,12.26
2019-03-13T12:32:04.981Z,12.15
2019-03-13T12:34:52.339Z,12.32
2019-03-13T12:37:35.101Z,11.94
2019-03-13T12:40:37.638Z,11.52
2019-03-13T12:43:38.757Z,11.47
2019-03-13T12:46:26.985Z,11.29
2019-03-13T12:49:24.899Z,11.01
2019-03-13T12:52:09.658Z,10.79
2019-03-13T12:54:58.337Z,10.44
2019-03-13T12:57:46.942Z,10.21
2019-03-13T13:00:37.356Z,10.04
2019-03-13T13:03:20.376Z,10.23
2019-03-13T13:06:09.100Z,10.31
2019-03-13T13:08:57.011Z,10.31
2019-03-13T13:11:55.822Z,10.24
2019-03-13T13:14:52.459Z,10.46
2019-03-13T13:17:38.959Z,10.56
2019-03-13T13:20:10.663Z,10.43
2019-03-13T13:22:40.507Z,10.35
2019-03-13T13:25:12.755Z,10.14
2019-03-13T13:27:43.837Z,10.12
2019-03-13T13:30:14.471Z,10.18
2019-03-13T13:32:44.163Z,10.43
2019-03-13T13:35:14.129Z,10.40
2019-03-13T13:37:44.196Z,10.12
2019-03-13T13:40:14.256Z,10.06
2019-03-13T13:42:43.919Z,10.25
2019-03-13T13:45:43.100Z,10.39
2019-03-13T13:48:17.086Z,10.32
2019-03-13T13:50:47.216Z,10.15
2019-03-13T13:53:17.138Z,9.89
2019-03-13T13:55:47.968Z,9.89
2019-03-13T13:58:17.826Z,9.70
2019-03-13T14:00:47.858Z,9.66
2019-03-13T14:03:17.545Z,9.80
2019-03-13T14:05:47.229Z,9.80
2019-03-13T14:08:16.945Z,9.87
2019-03-13T14:10:46.809Z,9.70
2019-03-13T14:13:17.094Z,9.76
2019-03-13T14:15:47.344Z,9.74
2019-03-13T14:18:17.289Z,9.79
2019-03-13T14:20:47.203Z,9.78
2019-03-13T14:23:17.190Z,9.77
2019-03-13T14:25:47.021Z,9.70
2019-03-13T14:28:16.627Z,9.61
2019-03-13T14:30:46.272Z,9.52
2019-03-13T14:33:16.146Z,9.47
2019-03-13T14:35:46.563Z,9.36
2019-03-13T14:38:18.142Z,9.34
2019-03-13T14:40:47.968Z,9.30
2019-03-13T14:43:18.329Z,9.32
2019-03-13T14:45:48.388Z,9.15
2019-03-13T14:48:17.988Z,9.06
2019-03-13T14:50:47.704Z,8.96
2019-03-13T14:53:17.549Z,9.08
2019-03-13T14:55:47.239Z,9.02
2019-03-13T14:58:16.830Z,9.13
2019-03-13T15:00:46.613Z,9.03
2019-03-13T15:03:16.761Z,9.08
2019-03-13T15:05:46.535Z,9.18
2019-03-13T15:08:18.154Z,9.06
2019-03-13T15:10:47.999Z,8.93
2019-03-13T15:13:17.785Z,8.80
2019-03-13T15:15:47.565Z,8.80
2019-03-13T15:18:17.337Z,8.82
2019-03-13T15:20:47.419Z,8.63
2019-03-13T15:23:17.309Z,8.63
2019-03-13T15:25:48.870Z,8.64
2019-03-13T15:28:18.575Z,8.80
2019-03-13T15:30:48.385Z,8.83
2019-03-13T15:33:18.020Z,8.73
2019-03-13T15:35:47.911Z,8.71
2019-03-13T15:38:17.987Z,8.78
2019-03-13T15:40:47.897Z,8.88
2019-03-13T15:43:17.803Z,8.94
2019-03-13T15:45:47.570Z,8.85
2019-03-13T15:48:18.717Z,8.80
2019-03-13T15:50:48.486Z,8.63
2019-03-13T15:53:18.220Z,8.63
2019-03-13T15:55:48.095Z,8.57
2019-03-13T15:58:17.906Z,8.47
2019-03-13T16:00:47.751Z,8.47
2019-03-13T16:03:17.520Z,8.52
2019-03-13T16:05:47.273Z,8.47
2019-03-13T16:08:17.070Z,8.47
2019-03-13T16:10:46.931Z,8.41
2019-03-13T16:13:16.772Z,8.39
2019-03-13T16:15:46.691Z,8.29
2019-03-13T16:18:16.304Z,8.19
2019-03-13T16:20:46.170Z,8.00
2019-03-13T16:23:17.366Z,8.00
2019-03-13T16:25:47.034Z,7.93
2019-03-13T16:28:16.752Z,7.75
2019-03-13T16:30:46.657Z,7.72
2019-03-13T16:33:16.731Z,7.75
2019-03-13T16:35:46.803Z,7.73
2019-03-13T16:38:16.614Z,7.74
2019-03-13T16:40:47.666Z,7.72
2019-03-13T16:43:18.371Z,7.64
2019-03-13T16:45:48.099Z,7.49
2019-03-13T16:48:17.966Z,7.44
2019-03-13T16:50:47.772Z,7.48
2019-03-13T16:53:17.616Z,7.51
2019-03-13T16:55:47.208Z,7.54
2019-03-13T16:58:16.931Z,7.46
2019-03-13T17:00:46.663Z,7.51
2019-03-13T17:03:16.429Z,7.57
2019-03-13T17:05:46.098Z,7.54
2019-03-13T17:08:15.887Z,7.48
2019-03-13T17:10:45.635Z,7.48
2019-03-13T17:13:15.433Z,7.54
2019-03-13T17:15:45.049Z,7.60
2019-03-13T17:18:14.831Z,7.53
2019-03-13T17:20:44.598Z,7.47
2019-03-13T17:23:14.429Z,7.49
2019-03-13T17:25:44.168Z,7.46
2019-03-13T17:28:13.941Z,7.51
2019-03-13T17:30:43.613Z,7.52
2019-03-13T17:33:13.270Z,7.51
2019-03-13T17:35:43.130Z,7.38
2019-03-13T17:38:13.175Z,7.27
2019-03-13T17:40:42.795Z,7.33
2019-03-13T17:43:12.527Z,7.25
2019-03-13T17:45:42.334Z,7.18
2019-03-13T17:48:12.102Z,7.09
2019-03-13T17:50:41.824Z,7.13
2019-03-13T17:53:11.470Z,7.01
2019-03-13T17:55:41.284Z,6.91
2019-03-13T17:58:10.946Z,7.03
2019-03-13T18:00:50.649Z,7.03
2019-03-13T18:03:20.697Z,7.09
2019-03-13T18:05:50.411Z,7.00
2019-03-13T18:08:20.015Z,7.01
2019-03-13T18:10:50.119Z,6.94
2019-03-13T18:13:19.971Z,6.98
2019-03-13T18:15:49.694Z,6.87
2019-03-13T18:18:19.477Z,6.73
2019-03-13T18:20:49.319Z,6.78
2019-03-13T18:23:19.018Z,6.72
2019-03-13T18:25:49.246Z,6.58
2019-03-13T18:28:18.994Z,6.60
2019-03-13T18:30:48.773Z,6.60
2019-03-13T18:33:18.455Z,6.61
2019-03-13T18:35:48.176Z,6.57
2019-03-13T18:38:17.974Z,6.62
2019-03-13T18:40:47.622Z,6.65
2019-03-13T18:43:17.352Z,6.71
2019-03-13T18:45:47.050Z,6.56
2019-03-13T18:48:16.794Z,6.46
2019-03-13T18:50:46.397Z,6.52
2019-03-13T18:53:16.114Z,6.59
2019-03-13T18:55:45.887Z,6.72
2019-03-13T18:58:15.567Z,6.68
2019-03-13T19:00:45.187Z,6.64
2019-03-13T19:03:14.973Z,6.57
2019-03-13T19:05:44.591Z,6.56
2019-03-13T19:08:14.214Z,6.53
2019-03-13T19:10:43.954Z,6.26
2019-03-13T19:13:13.664Z,6.10
2019-03-13T19:15:43.355Z,6.06
2019-03-13T19:18:13.203Z,6.10
2019-03-13T19:20:43.081Z,6.19
2019-03-13T19:23:14.277Z,6.15
2019-03-13T19:25:44.214Z,6.23
2019-03-13T19:28:13.853Z,6.17
2019-03-13T19:30:43.488Z,6.20
2019-03-13T19:33:13.261Z,6.20
2019-03-13T19:35:43.027Z,6.17
2019-03-13T19:38:12.933Z,6.18
2019-03-13T19:40:42.815Z,6.24
2019-03-13T19:43:12.389Z,6.24
2019-03-13T19:45:42.675Z,6.24
2019-03-13T19:48:12.556Z,6.38
2019-03-13T19:50:42.279Z,6.47
2019-03-13T19:53:12.169Z,6.52
2019-03-13T19:55:42.047Z,6.51
2019-03-13T19:58:11.740Z,6.52
2019-03-13T20:00:42.321Z,6.41
2019-03-13T20:03:12.216Z,6.40
2019-03-13T20:05:45.872Z,6.34
2019-03-13T20:08:14.112Z,6.25
2019-03-13T20:10:44.276Z,6.27
2019-03-13T20:13:13.966Z,6.22
2019-03-13T20:15:43.689Z,6.11
2019-03-13T20:18:13.342Z,6.12
2019-03-13T20:20:43.147Z,6.20
2019-03-13T20:23:12.914Z,6.10
2019-03-13T20:25:42.826Z,6.03
2019-03-13T20:28:12.383Z,6.06
2019-03-13T20:30:42.125Z,6.01
2019-03-13T20:33:12.019Z,5.99
2019-03-13T20:35:41.843Z,5.95
2019-03-13T20:38:11.446Z,5.97
2019-03-13T20:40:41.191Z,6.01
2019-03-13T20:43:10.989Z,6.15
2019-03-13T20:45:40.812Z,6.26
2019-03-13T20:48:10.574Z,6.33
2019-03-13T20:50:40.293Z,6.35
2019-03-13T20:53:09.980Z,6.17
2019-03-13T20:55:39.440Z,6.19
2019-03-13T20:58:09.142Z,6.15
2019-03-13T21:00:38.787Z,6.08
2019-03-13T21:03:08.637Z,6.11
2019-03-13T21:05:38.306Z,6.13
2019-03-13T21:08:08.153Z,6.15
2019-03-13T21:10:37.784Z,6.19
2019-03-13T21:13:07.524Z,6.13
2019-03-13T21:15:37.153Z,6.17
2019-03-13T21:18:07.027Z,6.19
2019-03-13T21:20:36.942Z,6.21
2019-03-13T21:23:06.836Z,6.20
2019-03-13T21:25:38.748Z,6.08
2019-03-13T21:28:08.352Z,5.99
2019-03-13T21:30:38.128Z,6.02
2019-03-13T21:33:08.000Z,5.93
2019-03-13T21:35:37.681Z,5.85
2019-03-13T21:38:07.350Z,5.97
2019-03-13T21:40:36.982Z,5.91
2019-03-13T21:43:06.709Z,5.83
2019-03-13T21:45:41.463Z,5.77
2019-03-13T21:48:07.878Z,5.74
2019-03-13T21:50:37.618Z,5.74
2019-03-13T21:53:07.363Z,5.78
2019-03-13T21:55:37.270Z,5.71
2019-03-13T21:58:07.127Z,5.76
2019-03-13T22:00:37.112Z,5.77
2019-03-13T22:03:07.082Z,5.69
2019-03-13T22:05:36.831Z,5.70
2019-03-13T22:08:06.430Z,5.61
2019-03-13T22:10:36.243Z,5.66
2019-03-13T22:13:06.040Z,5.65
2019-03-13T22:15:35.946Z,5.58
2019-03-13T22:18:05.802Z,5.53
2019-03-13T22:20:35.514Z,5.50
2019-03-13T22:23:05.331Z,5.47
2019-03-13T22:25:35.078Z,5.48
2019-03-13T22:28:04.735Z,5.48
2019-03-13T22:30:34.375Z,5.47
2019-03-13T22:33:05.361Z,5.56
2019-03-13T22:35:34.945Z,5.49
2019-03-13T22:38:04.468Z,5.53
2019-03-13T22:40:35.577Z,5.59
2019-03-13T22:43:05.212Z,5.54
2019-03-13T22:45:35.088Z,5.49
2019-03-13T22:48:04.685Z,5.45
2019-03-13T22:50:34.446Z,5.44
2019-03-13T22:53:04.302Z,5.47
2019-03-13T22:55:33.965Z,5.45
2019-03-13T22:58:03.828Z,5.51
2019-03-13T23:01:21.454Z,5.57
2019-03-13T23:03:51.753Z,5.70
2019-03-13T23:06:21.677Z,5.74
2019-03-13T23:08:51.409Z,5.76
2019-03-13T23:11:21.393Z,5.74
2019-03-13T23:13:51.010Z,5.64
2019-03-13T23:16:23.749Z,5.57
2019-03-13T23:18:52.048Z,5.54
2019-03-13T23:21:21.642Z,5.55
2019-03-13T23:23:51.247Z,5.61
2019-03-13T23:26:20.876Z,5.70
2019-03-13T23:28:50.464Z,5.69
2019-03-13T23:31:20.325Z,5.69
2019-03-13T23:33:49.917Z,5.67
2019-03-13T23:36:19.667Z,5.67
2019-03-13T23:38:49.313Z,5.67
2019-03-13T23:41:19.108Z,5.50
2019-03-13T23:43:49.027Z,5.49
2019-03-13T23:46:18.740Z,5.43
2019-03-13T23:48:48.489Z,5.44
2019-03-13T23:51:18.298Z,5.35
2019-03-13T23:53:47.920Z,5.36
2019-03-13T23:56:17.659Z,5.31
2019-03-13T23:58:49.112Z,5.33
